sensor_id;sensor_type;location;lat;lon;timestamp;P1;durP1;ratioP1;P2;durP2;ratioP2
38479;SDS011;62333;51.980;5.934;2022-10-16T00:00:35;3.22;;;0.60;;
38479;SDS011;62333;51.980;5.934;2022-10-16T00:03:02;4.03;;;0.80;;
38479;SDS011;62333;51.980;5.934;2022-10-16T00:05:28;2.78;;;0.63;;
38479;SDS011;62333;51.980;5.934;2022-10-16T00:07:54;3.97;;;0.70;;
38479;SDS011;62333;51.980;5.934;2022-10-16T00:10:19;5.57;;;1.33;;
38479;SDS011;62333;51.980;5.934;2022-10-16T00:12:45;3.70;;;1.20;;
38479;SDS011;62333;51.980;5.934;2022-10-16T00:15:11;4.47;;;1.45;;
38479;SDS011;62333;51.980;5.934;2022-10-16T00:17:36;4.30;;;0.90;;
38479;SDS011;62333;51.980;5.934;2022-10-16T00:20:02;3.55;;;0.60;;
38479;SDS011;62333;51.980;5.934;2022-10-16T00:22:28;3.28;;;0.80;;
38479;SDS011;62333;51.980;5.934;2022-10-16T00:24:54;3.67;;;1.25;;
38479;SDS011;62333;51.980;5.934;2022-10-16T00:27:19;2.58;;;0.65;;
38479;SDS011;62333;51.980;5.934;2022-10-16T00:29:49;3.30;;;0.73;;
38479;SDS011;62333;51.980;5.934;2022-10-16T00:32:16;4.30;;;1.10;;
38479;SDS011;62333;51.980;5.934;2022-10-16T00:34:42;4.90;;;0.80;;
38479;SDS011;62333;51.980;5.934;2022-10-16T00:37:08;4.68;;;0.95;;
38479;SDS011;62333;51.980;5.934;2022-10-16T00:39:33;3.85;;;1.45;;
38479;SDS011;62333;51.980;5.934;2022-10-16T00:41:59;4.72;;;1.67;;
38479;SDS011;62333;51.980;5.934;2022-10-16T00:44:42;9.98;;;1.92;;
38479;SDS011;62333;51.980;5.934;2022-10-16T00:47:12;5.25;;;1.50;;
38479;SDS011;62333;51.980;5.934;2022-10-16T00:50:00;6.10;;;1.98;;
38479;SDS011;62333;51.980;5.934;2022-10-16T00:52:32;3.97;;;1.05;;
38479;SDS011;62333;51.980;5.934;2022-10-16T00:54:57;3.85;;;1.10;;
38479;SDS011;62333;51.980;5.934;2022-10-16T00:57:24;1.55;;;0.60;;
38479;SDS011;62333;51.980;5.934;2022-10-16T00:59:51;4.65;;;1.45;;
38479;SDS011;62333;51.980;5.934;2022-10-16T01:02:17;5.68;;;0.93;;
38479;SDS011;62333;51.980;5.934;2022-10-16T01:04:44;5.20;;;1.80;;
38479;SDS011;62333;51.980;5.934;2022-10-16T01:12:16;4.60;;;1.33;;
38479;SDS011;62333;51.980;5.934;2022-10-16T01:20:54;2.75;;;0.88;;
38479;SDS011;62333;51.980;5.934;2022-10-16T01:31:47;3.60;;;1.25;;
38479;SDS011;62333;51.980;5.934;2022-10-16T01:34:20;6.20;;;1.52;;
38479;SDS011;62333;51.980;5.934;2022-10-16T01:36:55;4.78;;;0.80;;
38479;SDS011;62333;51.980;5.934;2022-10-16T01:39:26;3.05;;;1.10;;
38479;SDS011;62333;51.980;5.934;2022-10-16T01:42:01;3.17;;;0.95;;
38479;SDS011;62333;51.980;5.934;2022-10-16T01:44:38;5.05;;;1.00;;
38479;SDS011;62333;51.980;5.934;2022-10-16T01:47:07;4.47;;;0.90;;
38479;SDS011;62333;51.980;5.934;2022-10-16T01:49:36;2.38;;;0.80;;
38479;SDS011;62333;51.980;5.934;2022-10-16T01:52:06;4.05;;;1.15;;
38479;SDS011;62333;51.980;5.934;2022-10-16T01:54:45;2.88;;;0.68;;
38479;SDS011;62333;51.980;5.934;2022-10-16T01:57:13;2.08;;;0.77;;
38479;SDS011;62333;51.980;5.934;2022-10-16T01:59:44;4.07;;;0.93;;
38479;SDS011;62333;51.980;5.934;2022-10-16T02:02:14;1.77;;;0.73;;
38479;SDS011;62333;51.980;5.934;2022-10-16T02:05:45;3.90;;;1.48;;
38479;SDS011;62333;51.980;5.934;2022-10-16T02:07:36;2.83;;;1.00;;
38479;SDS011;62333;51.980;5.934;2022-10-16T02:10:02;3.22;;;1.05;;
38479;SDS011;62333;51.980;5.934;2022-10-16T02:12:29;4.30;;;1.30;;
38479;SDS011;62333;51.980;5.934;2022-10-16T02:14:58;3.00;;;0.85;;
38479;SDS011;62333;51.980;5.934;2022-10-16T02:17:23;1.50;;;0.50;;
38479;SDS011;62333;51.980;5.934;2022-10-16T02:19:49;2.08;;;0.80;;
38479;SDS011;62333;51.980;5.934;2022-10-16T02:22:20;2.75;;;1.00;;
38479;SDS011;62333;51.980;5.934;2022-10-16T02:29:57;2.40;;;0.70;;
38479;SDS011;62333;51.980;5.934;2022-10-16T02:32:34;6.72;;;0.98;;
38479;SDS011;62333;51.980;5.934;2022-10-16T02:35:03;4.65;;;0.88;;
38479;SDS011;62333;51.980;5.934;2022-10-16T02:37:30;5.70;;;0.80;;
38479;SDS011;62333;51.980;5.934;2022-10-16T02:39:57;3.42;;;1.00;;
38479;SDS011;62333;51.980;5.934;2022-10-16T02:42:27;1.40;;;0.52;;
38479;SDS011;62333;51.980;5.934;2022-10-16T02:44:54;2.15;;;0.70;;
38479;SDS011;62333;51.980;5.934;2022-10-16T02:47:20;1.77;;;0.60;;
38479;SDS011;62333;51.980;5.934;2022-10-16T02:49:46;2.67;;;0.90;;
38479;SDS011;62333;51.980;5.934;2022-10-16T02:52:11;3.50;;;1.42;;
38479;SDS011;62333;51.980;5.934;2022-10-16T02:54:37;1.92;;;0.68;;
38479;SDS011;62333;51.980;5.934;2022-10-16T02:57:02;4.70;;;1.10;;
38479;SDS011;62333;51.980;5.934;2022-10-16T02:59:28;3.67;;;0.55;;
38479;SDS011;62333;51.980;5.934;2022-10-16T03:01:54;3.22;;;0.60;;
38479;SDS011;62333;51.980;5.934;2022-10-16T03:04:19;2.75;;;0.93;;
38479;SDS011;62333;51.980;5.934;2022-10-16T03:06:45;11.80;;;1.45;;
38479;SDS011;62333;51.980;5.934;2022-10-16T03:09:10;2.42;;;0.90;;
38479;SDS011;62333;51.980;5.934;2022-10-16T03:11:36;2.03;;;0.50;;
38479;SDS011;62333;51.980;5.934;2022-10-16T03:14:02;5.22;;;1.17;;
38479;SDS011;62333;51.980;5.934;2022-10-16T03:16:27;3.15;;;1.20;;
38479;SDS011;62333;51.980;5.934;2022-10-16T03:18:53;2.60;;;1.27;;
38479;SDS011;62333;51.980;5.934;2022-10-16T03:21:18;4.22;;;1.45;;
38479;SDS011;62333;51.980;5.934;2022-10-16T03:23:44;2.80;;;1.05;;
38479;SDS011;62333;51.980;5.934;2022-10-16T03:26:10;2.95;;;1.50;;
38479;SDS011;62333;51.980;5.934;2022-10-16T03:28:35;5.03;;;0.73;;
38479;SDS011;62333;51.980;5.934;2022-10-16T03:31:01;2.40;;;0.70;;
38479;SDS011;62333;51.980;5.934;2022-10-16T03:33:27;2.72;;;0.60;;
38479;SDS011;62333;51.980;5.934;2022-10-16T03:35:53;2.20;;;0.70;;
38479;SDS011;62333;51.980;5.934;2022-10-16T03:38:19;1.17;;;0.43;;
38479;SDS011;62333;51.980;5.934;2022-10-16T03:40:45;3.70;;;0.50;;
38479;SDS011;62333;51.980;5.934;2022-10-16T03:43:11;1.92;;;0.50;;
38479;SDS011;62333;51.980;5.934;2022-10-16T03:45:37;2.67;;;0.60;;
38479;SDS011;62333;51.980;5.934;2022-10-16T03:48:03;1.55;;;0.40;;
38479;SDS011;62333;51.980;5.934;2022-10-16T03:50:29;4.75;;;1.17;;
38479;SDS011;62333;51.980;5.934;2022-10-16T03:52:54;2.50;;;0.50;;
38479;SDS011;62333;51.980;5.934;2022-10-16T03:55:20;2.00;;;0.70;;
38479;SDS011;62333;51.980;5.934;2022-10-16T03:57:46;4.38;;;0.73;;
38479;SDS011;62333;51.980;5.934;2022-10-16T04:00:12;2.13;;;0.40;;
38479;SDS011;62333;51.980;5.934;2022-10-16T04:02:38;2.50;;;0.95;;
38479;SDS011;62333;51.980;5.934;2022-10-16T04:05:03;1.65;;;0.50;;
38479;SDS011;62333;51.980;5.934;2022-10-16T04:07:29;1.48;;;0.40;;
38479;SDS011;62333;51.980;5.934;2022-10-16T04:09:55;1.55;;;0.52;;
38479;SDS011;62333;51.980;5.934;2022-10-16T04:12:22;2.63;;;0.50;;
38479;SDS011;62333;51.980;5.934;2022-10-16T04:14:47;4.05;;;0.47;;
38479;SDS011;62333;51.980;5.934;2022-10-16T04:17:13;3.00;;;1.33;;
38479;SDS011;62333;51.980;5.934;2022-10-16T04:19:39;1.50;;;0.63;;
38479;SDS011;62333;51.980;5.934;2022-10-16T04:22:04;1.63;;;0.50;;
38479;SDS011;62333;51.980;5.934;2022-10-16T04:24:30;1.63;;;0.60;;
38479;SDS011;62333;51.980;5.934;2022-10-16T04:26:55;2.92;;;0.63;;
38479;SDS011;62333;51.980;5.934;2022-10-16T04:29:21;1.70;;;0.65;;
38479;SDS011;62333;51.980;5.934;2022-10-16T04:31:47;2.28;;;0.73;;
38479;SDS011;62333;51.980;5.934;2022-10-16T04:34:12;2.97;;;0.98;;
38479;SDS011;62333;51.980;5.934;2022-10-16T04:36:38;2.38;;;0.55;;
38479;SDS011;62333;51.980;5.934;2022-10-16T04:39:04;2.50;;;0.75;;
38479;SDS011;62333;51.980;5.934;2022-10-16T04:41:29;2.05;;;0.60;;
38479;SDS011;62333;51.980;5.934;2022-10-16T04:43:55;2.08;;;0.50;;
38479;SDS011;62333;51.980;5.934;2022-10-16T04:46:20;2.15;;;0.40;;
38479;SDS011;62333;51.980;5.934;2022-10-16T04:48:46;1.13;;;0.60;;
38479;SDS011;62333;51.980;5.934;2022-10-16T04:51:12;2.08;;;0.40;;
38479;SDS011;62333;51.980;5.934;2022-10-16T04:53:38;3.25;;;0.40;;
38479;SDS011;62333;51.980;5.934;2022-10-16T04:56:03;2.35;;;0.70;;
38479;SDS011;62333;51.980;5.934;2022-10-16T04:58:29;3.17;;;0.60;;
38479;SDS011;62333;51.980;5.934;2022-10-16T05:00:55;2.70;;;0.65;;
38479;SDS011;62333;51.980;5.934;2022-10-16T05:03:20;1.20;;;0.50;;
38479;SDS011;62333;51.980;5.934;2022-10-16T05:05:46;4.53;;;0.60;;
38479;SDS011;62333;51.980;5.934;2022-10-16T05:08:12;1.58;;;0.50;;
38479;SDS011;62333;51.980;5.934;2022-10-16T05:10:40;2.17;;;0.40;;
38479;SDS011;62333;51.980;5.934;2022-10-16T05:13:07;3.63;;;0.75;;
38479;SDS011;62333;51.980;5.934;2022-10-16T05:15:33;2.58;;;0.90;;
38479;SDS011;62333;51.980;5.934;2022-10-16T05:17:58;1.27;;;0.30;;
38479;SDS011;62333;51.980;5.934;2022-10-16T05:20:24;1.40;;;0.50;;
38479;SDS011;62333;51.980;5.934;2022-10-16T05:22:49;1.38;;;0.60;;
38479;SDS011;62333;51.980;5.934;2022-10-16T05:25:15;2.67;;;0.70;;
38479;SDS011;62333;51.980;5.934;2022-10-16T05:27:41;1.90;;;0.40;;
38479;SDS011;62333;51.980;5.934;2022-10-16T05:30:07;1.40;;;0.40;;
38479;SDS011;62333;51.980;5.934;2022-10-16T05:32:33;6.82;;;0.43;;
38479;SDS011;62333;51.980;5.934;2022-10-16T05:34:58;4.68;;;1.02;;
38479;SDS011;62333;51.980;5.934;2022-10-16T05:37:25;1.10;;;0.25;;
38479;SDS011;62333;51.980;5.934;2022-10-16T05:39:52;1.60;;;0.55;;
38479;SDS011;62333;51.980;5.934;2022-10-16T05:42:17;1.55;;;0.50;;
38479;SDS011;62333;51.980;5.934;2022-10-16T05:44:43;1.83;;;0.40;;
38479;SDS011;62333;51.980;5.934;2022-10-16T05:47:09;1.45;;;0.65;;
38479;SDS011;62333;51.980;5.934;2022-10-16T05:49:37;4.80;;;1.42;;
38479;SDS011;62333;51.980;5.934;2022-10-16T05:52:03;3.03;;;0.93;;
38479;SDS011;62333;51.980;5.934;2022-10-16T05:54:29;1.70;;;0.70;;
38479;SDS011;62333;51.980;5.934;2022-10-16T05:56:54;1.90;;;0.70;;
38479;SDS011;62333;51.980;5.934;2022-10-16T05:59:20;3.20;;;0.50;;
38479;SDS011;62333;51.980;5.934;2022-10-16T06:01:45;2.75;;;0.70;;
38479;SDS011;62333;51.980;5.934;2022-10-16T06:04:11;1.85;;;0.55;;
38479;SDS011;62333;51.980;5.934;2022-10-16T06:06:37;2.28;;;0.50;;
38479;SDS011;62333;51.980;5.934;2022-10-16T06:09:03;3.30;;;0.47;;
38479;SDS011;62333;51.980;5.934;2022-10-16T06:11:29;1.10;;;0.40;;
38479;SDS011;62333;51.980;5.934;2022-10-16T06:13:57;2.92;;;0.80;;
38479;SDS011;62333;51.980;5.934;2022-10-16T06:16:27;2.40;;;0.40;;
38479;SDS011;62333;51.980;5.934;2022-10-16T06:18:53;3.08;;;0.50;;
38479;SDS011;62333;51.980;5.934;2022-10-16T06:21:21;1.63;;;0.70;;
38479;SDS011;62333;51.980;5.934;2022-10-16T06:23:51;4.32;;;0.63;;
38479;SDS011;62333;51.980;5.934;2022-10-16T06:26:18;3.88;;;0.35;;
38479;SDS011;62333;51.980;5.934;2022-10-16T06:28:46;1.23;;;0.40;;
38479;SDS011;62333;51.980;5.934;2022-10-16T06:31:12;1.98;;;0.43;;
38479;SDS011;62333;51.980;5.934;2022-10-16T06:33:39;1.45;;;0.30;;
38479;SDS011;62333;51.980;5.934;2022-10-16T06:36:09;1.77;;;0.50;;
38479;SDS011;62333;51.980;5.934;2022-10-16T06:38:40;1.70;;;0.65;;
38479;SDS011;62333;51.980;5.934;2022-10-16T06:41:06;1.80;;;0.65;;
38479;SDS011;62333;51.980;5.934;2022-10-16T06:43:34;2.47;;;0.68;;
38479;SDS011;62333;51.980;5.934;2022-10-16T06:46:03;3.90;;;0.80;;
38479;SDS011;62333;51.980;5.934;2022-10-16T06:48:30;4.38;;;0.90;;
38479;SDS011;62333;51.980;5.934;2022-10-16T06:50:57;2.10;;;1.00;;
38479;SDS011;62333;51.980;5.934;2022-10-16T06:53:26;7.85;;;1.20;;
38479;SDS011;62333;51.980;5.934;2022-10-16T06:55:53;3.78;;;1.00;;
38479;SDS011;62333;51.980;5.934;2022-10-16T06:58:19;1.23;;;0.40;;
38479;SDS011;62333;51.980;5.934;2022-10-16T07:00:44;2.72;;;0.55;;
38479;SDS011;62333;51.980;5.934;2022-10-16T07:03:10;1.17;;;0.50;;
38479;SDS011;62333;51.980;5.934;2022-10-16T07:05:37;6.28;;;0.60;;
38479;SDS011;62333;51.980;5.934;2022-10-16T07:08:03;1.80;;;0.43;;
38479;SDS011;62333;51.980;5.934;2022-10-16T07:10:30;5.30;;;1.50;;
38479;SDS011;62333;51.980;5.934;2022-10-16T07:12:56;2.45;;;0.90;;
38479;SDS011;62333;51.980;5.934;2022-10-16T07:15:22;2.67;;;0.80;;
38479;SDS011;62333;51.980;5.934;2022-10-16T07:17:49;5.22;;;1.20;;
38479;SDS011;62333;51.980;5.934;2022-10-16T07:20:15;3.40;;;0.73;;
38479;SDS011;62333;51.980;5.934;2022-10-16T07:22:40;2.60;;;0.50;;
38479;SDS011;62333;51.980;5.934;2022-10-16T07:25:06;2.33;;;0.90;;
38479;SDS011;62333;51.980;5.934;2022-10-16T07:27:32;2.97;;;0.90;;
38479;SDS011;62333;51.980;5.934;2022-10-16T07:29:57;3.13;;;0.52;;
38479;SDS011;62333;51.980;5.934;2022-10-16T07:32:23;6.30;;;0.90;;
38479;SDS011;62333;51.980;5.934;2022-10-16T07:34:50;5.90;;;0.65;;
38479;SDS011;62333;51.980;5.934;2022-10-16T07:37:16;1.80;;;0.70;;
38479;SDS011;62333;51.980;5.934;2022-10-16T07:39:42;7.75;;;0.80;;
38479;SDS011;62333;51.980;5.934;2022-10-16T07:42:08;8.27;;;1.40;;
38479;SDS011;62333;51.980;5.934;2022-10-16T07:44:34;4.05;;;1.00;;
38479;SDS011;62333;51.980;5.934;2022-10-16T07:46:59;5.47;;;1.10;;
38479;SDS011;62333;51.980;5.934;2022-10-16T07:49:28;2.63;;;0.52;;
38479;SDS011;62333;51.980;5.934;2022-10-16T07:51:54;2.15;;;0.70;;
38479;SDS011;62333;51.980;5.934;2022-10-16T07:54:19;4.38;;;1.25;;
38479;SDS011;62333;51.980;5.934;2022-10-16T07:56:45;2.92;;;0.60;;
38479;SDS011;62333;51.980;5.934;2022-10-16T07:59:11;3.97;;;0.90;;
38479;SDS011;62333;51.980;5.934;2022-10-16T08:01:36;2.58;;;0.80;;
38479;SDS011;62333;51.980;5.934;2022-10-16T08:04:02;3.25;;;0.57;;
38479;SDS011;62333;51.980;5.934;2022-10-16T08:06:28;1.95;;;0.60;;
38479;SDS011;62333;51.980;5.934;2022-10-16T08:08:54;2.35;;;0.45;;
38479;SDS011;62333;51.980;5.934;2022-10-16T08:11:20;2.38;;;0.82;;
38479;SDS011;62333;51.980;5.934;2022-10-16T08:13:46;3.97;;;0.45;;
38479;SDS011;62333;51.980;5.934;2022-10-16T08:16:12;3.03;;;1.00;;
38479;SDS011;62333;51.980;5.934;2022-10-16T08:18:38;1.65;;;0.75;;
38479;SDS011;62333;51.980;5.934;2022-10-16T08:21:08;2.75;;;0.52;;
38479;SDS011;62333;51.980;5.934;2022-10-16T08:23:41;2.00;;;0.50;;
38479;SDS011;62333;51.980;5.934;2022-10-16T08:26:09;2.42;;;0.73;;
38479;SDS011;62333;51.980;5.934;2022-10-16T08:28:35;3.38;;;0.90;;
38479;SDS011;62333;51.980;5.934;2022-10-16T08:31:08;2.97;;;0.60;;
38479;SDS011;62333;51.980;5.934;2022-10-16T08:33:38;3.65;;;0.60;;
38479;SDS011;62333;51.980;5.934;2022-10-16T08:36:06;3.40;;;0.55;;
38479;SDS011;62333;51.980;5.934;2022-10-16T08:38:32;1.58;;;0.50;;
38479;SDS011;62333;51.980;5.934;2022-10-16T08:41:02;3.03;;;0.80;;
38479;SDS011;62333;51.980;5.934;2022-10-16T08:43:40;2.47;;;0.80;;
38479;SDS011;62333;51.980;5.934;2022-10-16T08:49:07;12.32;;;1.15;;
38479;SDS011;62333;51.980;5.934;2022-10-16T08:51:38;3.85;;;0.68;;
38479;SDS011;62333;51.980;5.934;2022-10-16T08:54:05;2.63;;;0.40;;
38479;SDS011;62333;51.980;5.934;2022-10-16T08:56:39;1.63;;;0.60;;
38479;SDS011;62333;51.980;5.934;2022-10-16T08:59:06;2.85;;;0.40;;
38479;SDS011;62333;51.980;5.934;2022-10-16T09:01:40;3.78;;;0.95;;
38479;SDS011;62333;51.980;5.934;2022-10-16T09:20:31;2.85;;;0.50;;
38479;SDS011;62333;51.980;5.934;2022-10-16T09:25:51;2.80;;;0.65;;
38479;SDS011;62333;51.980;5.934;2022-10-16T09:28:18;3.13;;;0.90;;
38479;SDS011;62333;51.980;5.934;2022-10-16T09:30:44;16.83;;;0.70;;
38479;SDS011;62333;51.980;5.934;2022-10-16T09:33:11;2.38;;;0.50;;
38479;SDS011;62333;51.980;5.934;2022-10-16T09:35:38;5.38;;;0.50;;
38479;SDS011;62333;51.980;5.934;2022-10-16T09:38:09;2.65;;;0.35;;
38479;SDS011;62333;51.980;5.934;2022-10-16T09:40:51;7.45;;;1.20;;
38479;SDS011;62333;51.980;5.934;2022-10-16T09:54:17;3.85;;;0.60;;
38479;SDS011;62333;51.980;5.934;2022-10-16T09:56:45;3.22;;;0.88;;
38479;SDS011;62333;51.980;5.934;2022-10-16T09:59:32;5.03;;;0.80;;
38479;SDS011;62333;51.980;5.934;2022-10-16T10:02:00;4.13;;;0.50;;
38479;SDS011;62333;51.980;5.934;2022-10-16T10:04:36;3.97;;;0.65;;
38479;SDS011;62333;51.980;5.934;2022-10-16T10:07:05;7.40;;;1.77;;
38479;SDS011;62333;51.980;5.934;2022-10-16T10:09:42;4.25;;;0.68;;
38479;SDS011;62333;51.980;5.934;2022-10-16T10:12:17;4.80;;;1.05;;
38479;SDS011;62333;51.980;5.934;2022-10-16T10:14:52;4.05;;;1.10;;
38479;SDS011;62333;51.980;5.934;2022-10-16T10:17:21;2.95;;;0.40;;
38479;SDS011;62333;51.980;5.934;2022-10-16T10:22:29;6.78;;;0.70;;
38479;SDS011;62333;51.980;5.934;2022-10-16T10:27:41;7.13;;;1.15;;
38479;SDS011;62333;51.980;5.934;2022-10-16T10:41:05;6.57;;;0.77;;
38479;SDS011;62333;51.980;5.934;2022-10-16T10:46:38;7.68;;;1.65;;
38479;SDS011;62333;51.980;5.934;2022-10-16T10:49:09;5.97;;;0.88;;
38479;SDS011;62333;51.980;5.934;2022-10-16T10:52:00;5.80;;;0.93;;
38479;SDS011;62333;51.980;5.934;2022-10-16T11:08:02;6.82;;;1.33;;
38479;SDS011;62333;51.980;5.934;2022-10-16T11:10:57;8.93;;;2.05;;
38479;SDS011;62333;51.980;5.934;2022-10-16T11:16:40;2.90;;;0.77;;
38479;SDS011;62333;51.980;5.934;2022-10-16T11:19:22;5.60;;;0.85;;
38479;SDS011;62333;51.980;5.934;2022-10-16T11:22:12;4.82;;;1.02;;
38479;SDS011;62333;51.980;5.934;2022-10-16T11:27:17;4.00;;;0.70;;
38479;SDS011;62333;51.980;5.934;2022-10-16T11:30:00;4.95;;;1.33;;
38479;SDS011;62333;51.980;5.934;2022-10-16T11:32:34;6.38;;;0.90;;
38479;SDS011;62333;51.980;5.934;2022-10-16T11:35:19;6.38;;;1.00;;
38479;SDS011;62333;51.980;5.934;2022-10-16T11:37:50;6.95;;;1.67;;
38479;SDS011;62333;51.980;5.934;2022-10-16T11:40:28;4.57;;;0.85;;
38479;SDS011;62333;51.980;5.934;2022-10-16T11:43:17;3.78;;;0.65;;
38479;SDS011;62333;51.980;5.934;2022-10-16T11:45:58;3.58;;;0.40;;
38479;SDS011;62333;51.980;5.934;2022-10-16T11:48:31;6.70;;;1.05;;
38479;SDS011;62333;51.980;5.934;2022-10-16T11:51:17;5.05;;;1.10;;
38479;SDS011;62333;51.980;5.934;2022-10-16T11:53:56;7.07;;;1.50;;
38479;SDS011;62333;51.980;5.934;2022-10-16T11:56:27;4.10;;;0.82;;
38479;SDS011;62333;51.980;5.934;2022-10-16T11:59:02;5.50;;;0.63;;
38479;SDS011;62333;51.980;5.934;2022-10-16T12:01:42;3.65;;;0.63;;
38479;SDS011;62333;51.980;5.934;2022-10-16T12:06:50;4.68;;;0.47;;
38479;SDS011;62333;51.980;5.934;2022-10-16T12:09:33;4.28;;;0.63;;
38479;SDS011;62333;51.980;5.934;2022-10-16T12:12:02;4.93;;;0.80;;
38479;SDS011;62333;51.980;5.934;2022-10-16T12:20:12;6.25;;;0.50;;
38479;SDS011;62333;51.980;5.934;2022-10-16T12:23:02;7.70;;;0.97;;
38479;SDS011;62333;51.980;5.934;2022-10-16T12:25:31;4.53;;;0.93;;
38479;SDS011;62333;51.980;5.934;2022-10-16T12:28:15;6.88;;;1.48;;
38479;SDS011;62333;51.980;5.934;2022-10-16T12:30:57;5.97;;;1.00;;
38479;SDS011;62333;51.980;5.934;2022-10-16T12:33:29;5.15;;;0.85;;
38479;SDS011;62333;51.980;5.934;2022-10-16T12:35:57;7.03;;;1.75;;
38479;SDS011;62333;51.980;5.934;2022-10-16T12:46:04;8.63;;;1.40;;
38479;SDS011;62333;51.980;5.934;2022-10-16T12:48:45;3.78;;;0.85;;
38479;SDS011;62333;51.980;5.934;2022-10-16T13:11:05;3.78;;;0.60;;
38479;SDS011;62333;51.980;5.934;2022-10-16T13:19:42;3.53;;;0.70;;
38479;SDS011;62333;51.980;5.934;2022-10-16T13:22:22;5.95;;;0.98;;
38479;SDS011;62333;51.980;5.934;2022-10-16T13:25:21;5.82;;;1.02;;
38479;SDS011;62333;51.980;5.934;2022-10-16T13:28:08;5.85;;;1.05;;
38479;SDS011;62333;51.980;5.934;2022-10-16T13:33:24;6.00;;;0.75;;
38479;SDS011;62333;51.980;5.934;2022-10-16T13:36:17;6.22;;;0.77;;
38479;SDS011;62333;51.980;5.934;2022-10-16T13:38:47;6.67;;;0.97;;
38479;SDS011;62333;51.980;5.934;2022-10-16T13:41:17;7.25;;;1.30;;
38479;SDS011;62333;51.980;5.934;2022-10-16T13:43:47;4.78;;;0.82;;
38479;SDS011;62333;51.980;5.934;2022-10-16T13:46:17;6.85;;;1.00;;
38479;SDS011;62333;51.980;5.934;2022-10-16T13:48:44;5.18;;;0.77;;
38479;SDS011;62333;51.980;5.934;2022-10-16T13:51:24;5.22;;;0.77;;
38479;SDS011;62333;51.980;5.934;2022-10-16T13:53:50;4.20;;;0.93;;
38479;SDS011;62333;51.980;5.934;2022-10-16T13:56:17;6.63;;;0.90;;
38479;SDS011;62333;51.980;5.934;2022-10-16T13:58:44;5.05;;;0.57;;
38479;SDS011;62333;51.980;5.934;2022-10-16T14:01:18;8.50;;;1.35;;
38479;SDS011;62333;51.980;5.934;2022-10-16T14:03:50;8.55;;;1.15;;
38479;SDS011;62333;51.980;5.934;2022-10-16T14:06:17;5.93;;;1.27;;
38479;SDS011;62333;51.980;5.934;2022-10-16T14:08:50;4.05;;;0.75;;
38479;SDS011;62333;51.980;5.934;2022-10-16T14:11:24;5.00;;;1.40;;
38479;SDS011;62333;51.980;5.934;2022-10-16T14:13:50;5.03;;;0.98;;
38479;SDS011;62333;51.980;5.934;2022-10-16T14:16:17;7.07;;;1.25;;
38479;SDS011;62333;51.980;5.934;2022-10-16T14:21:24;9.25;;;1.08;;
38479;SDS011;62333;51.980;5.934;2022-10-16T14:23:51;4.90;;;0.75;;
38479;SDS011;62333;51.980;5.934;2022-10-16T14:26:19;6.35;;;1.13;;
38479;SDS011;62333;51.980;5.934;2022-10-16T14:28:48;4.50;;;0.52;;
38479;SDS011;62333;51.980;5.934;2022-10-16T14:33:54;2.72;;;0.50;;
38479;SDS011;62333;51.980;5.934;2022-10-16T14:36:19;2.83;;;0.52;;
38479;SDS011;62333;51.980;5.934;2022-10-16T14:39:00;5.80;;;0.52;;
38479;SDS011;62333;51.980;5.934;2022-10-16T14:41:32;6.72;;;0.80;;
38479;SDS011;62333;51.980;5.934;2022-10-16T14:44:11;3.30;;;0.60;;
38479;SDS011;62333;51.980;5.934;2022-10-16T14:46:38;5.93;;;0.90;;
38479;SDS011;62333;51.980;5.934;2022-10-16T14:51:34;7.88;;;0.70;;
38479;SDS011;62333;51.980;5.934;2022-10-16T14:54:00;4.13;;;1.25;;
38479;SDS011;62333;51.980;5.934;2022-10-16T14:57:12;5.80;;;0.80;;
38479;SDS011;62333;51.980;5.934;2022-10-16T14:59:35;8.15;;;1.45;;
38479;SDS011;62333;51.980;5.934;2022-10-16T15:02:36;7.45;;;0.52;;
38479;SDS011;62333;51.980;5.934;2022-10-16T15:04:56;5.13;;;0.88;;
38479;SDS011;62333;51.980;5.934;2022-10-16T15:07:22;3.47;;;0.75;;
38479;SDS011;62333;51.980;5.934;2022-10-16T15:09:48;6.80;;;1.58;;
38479;SDS011;62333;51.980;5.934;2022-10-16T15:12:14;5.47;;;0.90;;
38479;SDS011;62333;51.980;5.934;2022-10-16T15:14:40;6.60;;;0.50;;
38479;SDS011;62333;51.980;5.934;2022-10-16T15:17:07;4.82;;;0.50;;
38479;SDS011;62333;51.980;5.934;2022-10-16T15:19:37;8.90;;;0.80;;
38479;SDS011;62333;51.980;5.934;2022-10-16T15:22:02;6.95;;;1.98;;
38479;SDS011;62333;51.980;5.934;2022-10-16T15:24:28;14.10;;;1.05;;
38479;SDS011;62333;51.980;5.934;2022-10-16T15:26:54;3.92;;;1.08;;
38479;SDS011;62333;51.980;5.934;2022-10-16T15:29:19;4.03;;;0.55;;
38479;SDS011;62333;51.980;5.934;2022-10-16T15:31:45;6.82;;;0.93;;
38479;SDS011;62333;51.980;5.934;2022-10-16T15:34:12;2.80;;;0.50;;
38479;SDS011;62333;51.980;5.934;2022-10-16T15:36:38;6.90;;;0.90;;
38479;SDS011;62333;51.980;5.934;2022-10-16T15:39:17;5.93;;;1.38;;
38479;SDS011;62333;51.980;5.934;2022-10-16T15:41:45;4.30;;;0.55;;
38479;SDS011;62333;51.980;5.934;2022-10-16T15:44:16;4.75;;;0.65;;
38479;SDS011;62333;51.980;5.934;2022-10-16T15:46:42;6.43;;;0.80;;
38479;SDS011;62333;51.980;5.934;2022-10-16T15:49:08;5.57;;;1.15;;
38479;SDS011;62333;51.980;5.934;2022-10-16T15:51:37;5.18;;;1.30;;
38479;SDS011;62333;51.980;5.934;2022-10-16T15:54:04;6.63;;;1.17;;
38479;SDS011;62333;51.980;5.934;2022-10-16T15:56:30;9.07;;;1.42;;
38479;SDS011;62333;51.980;5.934;2022-10-16T15:58:58;4.63;;;1.38;;
38479;SDS011;62333;51.980;5.934;2022-10-16T16:01:24;5.15;;;1.13;;
38479;SDS011;62333;51.980;5.934;2022-10-16T16:03:54;6.20;;;0.57;;
38479;SDS011;62333;51.980;5.934;2022-10-16T16:06:20;5.22;;;1.52;;
38479;SDS011;62333;51.980;5.934;2022-10-16T16:08:46;6.20;;;1.08;;
38479;SDS011;62333;51.980;5.934;2022-10-16T16:11:13;4.70;;;1.00;;
38479;SDS011;62333;51.980;5.934;2022-10-16T16:13:40;11.70;;;2.88;;
38479;SDS011;62333;51.980;5.934;2022-10-16T16:16:10;11.57;;;3.40;;
38479;SDS011;62333;51.980;5.934;2022-10-16T16:18:37;6.93;;;1.80;;
38479;SDS011;62333;51.980;5.934;2022-10-16T16:21:04;6.07;;;1.25;;
38479;SDS011;62333;51.980;5.934;2022-10-16T16:23:30;7.32;;;1.10;;
38479;SDS011;62333;51.980;5.934;2022-10-16T16:28:58;5.50;;;0.98;;
38479;SDS011;62333;51.980;5.934;2022-10-16T16:31:24;5.07;;;1.52;;
38479;SDS011;62333;51.980;5.934;2022-10-16T16:33:53;3.67;;;0.77;;
38479;SDS011;62333;51.980;5.934;2022-10-16T16:36:19;8.68;;;1.20;;
38479;SDS011;62333;51.980;5.934;2022-10-16T16:38:45;3.75;;;0.65;;
38479;SDS011;62333;51.980;5.934;2022-10-16T16:41:15;5.35;;;0.50;;
38479;SDS011;62333;51.980;5.934;2022-10-16T16:43:46;8.02;;;1.25;;
38479;SDS011;62333;51.980;5.934;2022-10-16T16:46:18;6.18;;;1.20;;
38479;SDS011;62333;51.980;5.934;2022-10-16T16:48:45;7.05;;;1.23;;
38479;SDS011;62333;51.980;5.934;2022-10-16T16:51:12;8.65;;;1.10;;
38479;SDS011;62333;51.980;5.934;2022-10-16T16:53:48;7.22;;;0.98;;
38479;SDS011;62333;51.980;5.934;2022-10-16T16:56:15;5.13;;;1.17;;
38479;SDS011;62333;51.980;5.934;2022-10-16T16:58:44;6.85;;;1.08;;
38479;SDS011;62333;51.980;5.934;2022-10-16T17:01:11;5.38;;;1.15;;
38479;SDS011;62333;51.980;5.934;2022-10-16T17:03:36;33.78;;;14.80;;
38479;SDS011;62333;51.980;5.934;2022-10-16T17:06:06;29.10;;;19.73;;
38479;SDS011;62333;51.980;5.934;2022-10-16T17:08:34;40.53;;;23.30;;
38479;SDS011;62333;51.980;5.934;2022-10-16T17:11:00;29.63;;;18.65;;
38479;SDS011;62333;51.980;5.934;2022-10-16T17:13:27;21.35;;;12.13;;
38479;SDS011;62333;51.980;5.934;2022-10-16T17:15:55;18.20;;;9.90;;
38479;SDS011;62333;51.980;5.934;2022-10-16T17:18:21;17.45;;;8.55;;
38479;SDS011;62333;51.980;5.934;2022-10-16T17:20:48;19.85;;;10.27;;
38479;SDS011;62333;51.980;5.934;2022-10-16T17:23:15;18.85;;;11.00;;
38479;SDS011;62333;51.980;5.934;2022-10-16T17:25:42;16.58;;;9.00;;
38479;SDS011;62333;51.980;5.934;2022-10-16T17:28:09;14.95;;;7.72;;
38479;SDS011;62333;51.980;5.934;2022-10-16T17:30:36;10.93;;;5.95;;